createdAt,value
2018-11-01T00:01:06.582Z,9.27
2018-11-01T00:04:12.435Z,9.67
2018-11-01T00:07:17.883Z,6.63
2018-11-01T00:10:24.944Z,6.43
2018-11-01T00:13:30.491Z,6.87
2018-11-01T00:16:38.194Z,8.77
2018-11-01T00:19:43.229Z,6.33
2018-11-01T00:22:48.697Z,9.03
2018-11-01T00:25:54.071Z,6.53
2018-11-01T00:29:01.037Z,7.33
2018-11-01T00:32:06.552Z,6.20
2018-11-01T00:35:12.434Z,6.50
2018-11-01T00:38:17.961Z,6.63
2018-11-01T00:41:23.260Z,9.63
2018-11-01T00:44:30.286Z,5.77
2018-11-01T00:47:35.715Z,8.70
2018-11-01T00:50:41.105Z,5.23
2018-11-01T00:53:48.464Z,6.93
2018-11-01T00:56:53.425Z,5.10
2018-11-01T00:59:58.880Z,5.40
2018-11-01T01:03:05.627Z,6.33
2018-11-01T01:06:11.003Z,8.20
2018-11-01T01:09:16.601Z,5.50
2018-11-01T01:12:22.180Z,7.67
2018-11-01T01:15:29.163Z,5.30
2018-11-01T01:18:34.177Z,7.63
2018-11-01T01:21:39.472Z,6.20
2018-11-01T01:24:46.451Z,5.17
2018-11-01T01:27:51.752Z,6.80
2018-11-01T01:30:57.039Z,6.30
2018-11-01T01:34:02.446Z,4.73
2018-11-01T01:37:08.778Z,6.43
2018-11-01T01:40:13.993Z,5.20
2018-11-01T01:43:23.812Z,5.67
2018-11-01T01:46:29.498Z,4.73
2018-11-01T01:49:35.291Z,4.77
2018-11-01T01:52:41.074Z,4.80
2018-11-01T01:55:46.559Z,9.47
2018-11-01T01:58:52.081Z,6.07
2018-11-01T02:01:57.448Z,5.20
2018-11-01T02:05:03.002Z,7.33
2018-11-01T02:08:09.286Z,5.83
2018-11-01T02:11:14.778Z,5.20
2018-11-01T02:14:20.397Z,4.20
2018-11-01T02:17:25.708Z,5.23
2018-11-01T02:20:30.624Z,8.07
2018-11-01T02:23:47.698Z,6.77
2018-11-01T02:26:54.834Z,6.17
2018-11-01T02:30:11.831Z,6.07
2018-11-01T02:33:21.358Z,5.87
2018-11-01T02:36:47.303Z,5.90
2018-11-01T02:40:03.279Z,3.97
2018-11-01T02:46:23.100Z,4.83
2018-11-01T02:49:28.180Z,7.10
2018-11-01T02:52:35.904Z,5.30
2018-11-01T02:55:45.605Z,6.27
2018-11-01T02:58:58.477Z,5.03
2018-11-01T03:02:03.057Z,6.50
2018-11-01T03:05:08.457Z,4.13
2018-11-01T03:08:17.927Z,9.50
2018-11-01T03:11:23.727Z,5.40
2018-11-01T03:14:28.549Z,5.80
2018-11-01T03:17:33.817Z,5.73
2018-11-01T03:20:38.825Z,7.13
2018-11-01T03:23:44.254Z,5.60
2018-11-01T03:26:50.340Z,5.70
2018-11-01T03:29:55.866Z,5.50
2018-11-01T03:33:01.004Z,5.33
2018-11-01T03:36:06.099Z,6.97
2018-11-01T03:39:12.811Z,4.23
2018-11-01T03:42:17.874Z,5.80
2018-11-01T03:45:23.585Z,6.83
2018-11-01T03:48:28.882Z,4.70
2018-11-01T03:51:34.098Z,5.63
2018-11-01T03:54:39.382Z,5.97
2018-11-01T03:57:44.478Z,4.77
2018-11-01T04:00:51.063Z,4.87
2018-11-01T04:03:56.977Z,8.37
2018-11-01T04:07:02.673Z,6.13
2018-11-01T04:10:08.689Z,5.37
2018-11-01T04:13:14.865Z,5.13
2018-11-01T04:16:19.383Z,4.37
2018-11-01T04:19:24.461Z,6.30
2018-11-01T04:22:31.147Z,6.20
2018-11-01T04:25:36.538Z,4.63
2018-11-01T04:28:41.546Z,5.13
2018-11-01T04:31:48.925Z,6.17
2018-11-01T04:34:57.953Z,4.70
2018-11-01T04:38:03.502Z,5.47
2018-11-01T04:41:08.959Z,7.67
2018-11-01T04:44:14.419Z,6.10
2018-11-01T04:47:19.913Z,6.00
2018-11-01T04:50:25.101Z,6.73
2018-11-01T04:53:30.632Z,6.37
2018-11-01T04:56:35.259Z,4.40
2018-11-01T04:59:40.321Z,5.50
2018-11-01T05:02:45.591Z,6.63
2018-11-01T05:05:50.726Z,4.93
2018-11-01T05:08:55.646Z,4.87
2018-11-01T05:12:00.477Z,5.80
2018-11-01T05:15:06.652Z,6.27
2018-11-01T05:18:13.117Z,8.00
2018-11-01T05:21:25.849Z,5.10
2018-11-01T05:24:30.110Z,7.33
2018-11-01T05:27:35.614Z,6.17
2018-11-01T05:30:40.695Z,7.20
2018-11-01T05:33:45.892Z,4.87
2018-11-01T05:36:51.136Z,4.07
2018-11-01T05:39:56.270Z,5.30
2018-11-01T05:43:01.478Z,7.53
2018-11-01T05:46:06.528Z,5.10
2018-11-01T05:49:11.837Z,4.50
2018-11-01T05:52:16.910Z,5.63
2018-11-01T05:55:22.073Z,7.13
2018-11-01T05:58:27.204Z,7.90
2018-11-01T06:01:36.108Z,5.17
2018-11-01T06:04:40.554Z,6.40
2018-11-01T06:07:53.578Z,6.33
2018-11-01T06:10:58.102Z,5.30
2018-11-01T06:14:03.010Z,6.80
2018-11-01T06:17:09.038Z,6.23
2018-11-01T06:20:15.204Z,8.93
2018-11-01T06:23:20.163Z,8.23
2018-11-01T06:26:26.507Z,5.63
2018-11-01T06:29:37.113Z,6.90
2018-11-01T06:32:46.901Z,5.13
2018-11-01T06:35:53.607Z,5.20
2018-11-01T06:39:00.424Z,7.10
2018-11-01T06:42:08.499Z,5.23
2018-11-01T06:45:13.047Z,6.73
2018-11-01T06:48:19.319Z,5.77
2018-11-01T06:51:24.715Z,5.03
2018-11-01T06:54:29.235Z,5.90
2018-11-01T06:57:34.448Z,4.73
2018-11-01T07:00:39.047Z,6.07
2018-11-01T07:03:44.140Z,7.40
2018-11-01T07:06:48.892Z,7.73
2018-11-01T07:09:55.051Z,6.10
2018-11-01T07:13:00.580Z,8.50
2018-11-01T07:16:06.534Z,7.13
2018-11-01T07:19:11.712Z,6.23
2018-11-01T07:22:16.955Z,7.13
2018-11-01T07:25:22.358Z,6.77
2018-11-01T07:28:27.199Z,5.70
2018-11-01T07:31:31.949Z,5.50
2018-11-01T07:34:42.231Z,7.87
2018-11-01T07:37:47.683Z,6.83
2018-11-01T07:40:52.537Z,5.63
2018-11-01T07:43:57.039Z,3.67
2018-11-01T07:47:01.844Z,4.03
2018-11-01T07:50:08.556Z,5.23
2018-11-01T07:53:14.297Z,5.07
2018-11-01T07:56:19.913Z,3.97
2018-11-01T07:59:27.194Z,6.53
2018-11-01T08:02:32.362Z,8.23
2018-11-01T08:05:38.999Z,6.77
2018-11-01T08:08:44.367Z,5.37
2018-11-01T08:11:49.836Z,5.77
2018-11-01T08:14:56.224Z,4.87
2018-11-01T08:18:01.280Z,4.87
2018-11-01T08:21:06.761Z,6.57
2018-11-01T08:24:14.853Z,5.50
2018-11-01T08:27:21.132Z,9.87
2018-11-01T08:30:26.295Z,8.37
2018-11-01T08:33:31.729Z,3.83
2018-11-01T08:36:36.864Z,7.63
2018-11-01T08:39:41.734Z,8.27
2018-11-01T08:42:46.348Z,5.47
2018-11-01T08:45:51.635Z,4.80
2018-11-01T08:48:55.988Z,5.83
2018-11-01T08:52:00.380Z,5.53
2018-11-01T08:55:04.957Z,4.47
2018-11-01T08:58:09.253Z,5.20
2018-11-01T09:01:14.079Z,6.33
2018-11-01T09:04:18.951Z,6.70
2018-11-01T09:07:23.722Z,6.00
2018-11-01T09:10:28.769Z,6.77
2018-11-01T09:13:33.080Z,6.17
2018-11-01T09:16:38.183Z,4.80
2018-11-01T09:19:43.540Z,7.40
2018-11-01T09:22:48.074Z,6.83
2018-11-01T09:25:52.824Z,5.80
2018-11-01T09:28:57.450Z,5.60
2018-11-01T09:32:09.598Z,7.17
2018-11-01T09:35:14.201Z,8.70
2018-11-01T09:38:19.984Z,6.70
2018-11-01T09:41:25.015Z,7.33
2018-11-01T09:44:29.878Z,6.50
2018-11-01T09:47:35.838Z,7.77
2018-11-01T09:50:41.446Z,7.13
2018-11-01T09:53:46.466Z,7.20
2018-11-01T09:56:51.536Z,7.33
2018-11-01T09:59:56.510Z,6.70
2018-11-01T10:03:01.234Z,9.90
2018-11-01T10:06:06.282Z,9.03
2018-11-01T10:09:11.139Z,8.20
2018-11-01T10:12:16.440Z,10.77
2018-11-01T10:15:22.734Z,9.77
2018-11-01T10:18:27.370Z,9.63
2018-11-01T10:21:31.325Z,8.27
2018-11-01T10:24:38.257Z,9.03
2018-11-01T10:27:47.704Z,9.70
2018-11-01T10:31:01.053Z,10.97
2018-11-01T10:34:05.957Z,12.27
2018-11-01T10:37:10.300Z,11.53
2018-11-01T10:40:17.871Z,11.77
2018-11-01T10:43:24.518Z,11.10
2018-11-01T10:46:29.637Z,9.40
2018-11-01T10:49:41.218Z,12.60
2018-11-01T10:52:45.617Z,13.63
2018-11-01T10:55:50.013Z,13.50
2018-11-01T10:58:54.474Z,14.43
2018-11-01T11:02:05.357Z,10.57
2018-11-01T11:08:23.096Z,12.67
2018-11-01T11:11:31.040Z,12.87
2018-11-01T11:14:37.295Z,12.27
2018-11-01T11:17:42.807Z,10.20
2018-11-01T11:20:47.380Z,9.27
2018-11-01T11:23:52.301Z,10.47
2018-11-01T11:26:56.679Z,10.63
2018-11-01T11:30:01.970Z,11.50
2018-11-01T11:33:06.522Z,10.83
2018-11-01T11:36:11.227Z,7.50
2018-11-01T11:39:17.266Z,11.97
2018-11-01T11:42:24.621Z,11.17
2018-11-01T11:45:29.201Z,12.63
2018-11-01T11:48:33.813Z,12.50
2018-11-01T11:51:38.371Z,15.33
2018-11-01T11:54:43.185Z,14.60
2018-11-01T11:57:49.155Z,18.70
2018-11-01T12:00:54.818Z,14.70
2018-11-01T12:07:16.060Z,17.07
2018-11-01T12:10:20.664Z,19.30
2018-11-01T12:13:32.371Z,18.97
2018-11-01T12:16:38.610Z,15.93
2018-11-01T12:19:43.581Z,19.43
2018-11-01T12:22:48.290Z,19.73
2018-11-01T12:25:53.860Z,19.80
2018-11-01T12:28:59.379Z,17.63
2018-11-01T12:32:04.812Z,20.53
2018-11-01T12:35:10.144Z,19.77
2018-11-01T12:38:14.860Z,19.47
2018-11-01T12:41:19.776Z,19.63
2018-11-01T12:44:25.644Z,20.47
2018-11-01T12:47:30.636Z,22.33
2018-11-01T12:50:35.937Z,20.57
2018-11-01T12:53:41.372Z,19.40
2018-11-01T12:56:46.270Z,18.57
2018-11-01T12:59:51.557Z,21.83
2018-11-01T13:02:55.912Z,20.30
2018-11-01T13:06:00.196Z,23.57
2018-11-01T13:09:07.856Z,21.77
2018-11-01T13:12:13.883Z,22.47
2018-11-01T13:15:18.691Z,21.80
2018-11-01T13:18:23.083Z,24.57
2018-11-01T13:21:29.084Z,25.23
2018-11-01T13:24:34.016Z,23.03
2018-11-01T13:27:38.895Z,26.40
2018-11-01T13:30:43.170Z,29.40
2018-11-01T13:33:47.705Z,24.23
2018-11-01T13:36:53.052Z,23.37
2018-11-01T13:39:59.218Z,23.13
2018-11-01T13:43:04.365Z,21.53
2018-11-01T13:46:08.909Z,26.23
2018-11-01T13:49:13.706Z,21.67
2018-11-01T13:52:20.091Z,24.90
2018-11-01T13:55:24.966Z,23.17
2018-11-01T13:58:29.357Z,25.07
2018-11-01T14:01:33.849Z,22.90
2018-11-01T14:04:38.386Z,24.70
2018-11-01T14:07:45.584Z,23.90
2018-11-01T14:10:50.681Z,26.00
2018-11-01T14:13:55.770Z,23.40
2018-11-01T14:17:00.906Z,25.77
2018-11-01T14:20:06.500Z,26.00
2018-11-01T14:23:11.250Z,26.57
2018-11-01T14:26:16.284Z,26.47
2018-11-01T14:29:21.280Z,28.73
2018-11-01T14:32:27.571Z,24.17
2018-11-01T14:35:32.381Z,28.93
2018-11-01T14:38:37.134Z,24.93
2018-11-01T14:41:41.999Z,26.27
2018-11-01T14:44:46.727Z,30.00
2018-11-01T14:47:51.517Z,25.23
2018-11-01T14:50:55.937Z,24.27
2018-11-01T14:54:01.577Z,28.37
2018-11-01T14:57:05.967Z,26.20
2018-11-01T15:00:10.670Z,26.97
2018-11-01T15:03:15.605Z,25.53
2018-11-01T15:06:20.959Z,26.00
2018-11-01T15:09:25.299Z,26.47
2018-11-01T15:12:29.869Z,28.73
2018-11-01T15:15:35.260Z,27.70
2018-11-01T15:18:42.197Z,28.63
2018-11-01T15:21:47.858Z,24.90
2018-11-01T15:24:53.353Z,25.77
2018-11-01T15:27:58.393Z,27.73
2018-11-01T15:31:03.334Z,26.80
2018-11-01T15:34:08.397Z,26.97
2018-11-01T15:37:13.413Z,28.97
2018-11-01T15:40:18.627Z,24.53
2018-11-01T15:43:23.029Z,25.80
2018-11-01T15:46:27.823Z,24.80
2018-11-01T15:49:32.847Z,26.80
2018-11-01T15:52:37.971Z,27.00
2018-11-01T15:55:43.333Z,24.57
2018-11-01T15:58:50.010Z,26.73
2018-11-01T16:01:55.290Z,28.27
2018-11-01T16:05:00.988Z,20.40
2018-11-01T16:08:11.171Z,27.83
2018-11-01T16:11:15.891Z,26.67
2018-11-01T16:14:21.555Z,29.47
2018-11-01T16:17:29.092Z,26.87
2018-11-01T16:20:35.597Z,33.13
2018-11-01T16:23:40.738Z,28.93
2018-11-01T16:26:46.666Z,23.63
2018-11-01T16:29:51.191Z,30.33
2018-11-01T16:32:55.905Z,27.63
2018-11-01T16:36:00.242Z,24.47
2018-11-01T16:39:08.269Z,28.60
2018-11-01T16:42:13.213Z,27.87
2018-11-01T16:45:18.028Z,26.97
2018-11-01T16:48:23.615Z,26.97
2018-11-01T16:51:28.908Z,31.57
2018-11-01T16:54:33.951Z,28.03
2018-11-01T16:57:39.243Z,34.53
2018-11-01T17:00:45.415Z,39.67
2018-11-01T17:03:50.997Z,40.57
2018-11-01T17:06:55.921Z,39.57
2018-11-01T17:10:01.446Z,44.20
2018-11-01T17:13:05.867Z,44.03
2018-11-01T17:16:10.455Z,44.50
2018-11-01T17:19:17.489Z,46.33
2018-11-01T17:22:23.444Z,50.90
2018-11-01T17:25:28.370Z,49.13
2018-11-01T17:28:33.414Z,47.67
2018-11-01T17:31:38.085Z,49.73
2018-11-01T17:34:43.710Z,51.63
2018-11-01T17:37:48.377Z,47.23
2018-11-01T17:40:53.315Z,47.73
2018-11-01T17:43:57.946Z,49.20
2018-11-01T17:47:04.253Z,48.27
2018-11-01T17:50:11.347Z,44.60
2018-11-01T17:53:15.859Z,45.50
2018-11-01T17:56:20.153Z,45.03
2018-11-01T17:59:24.571Z,47.53
2018-11-01T18:02:29.066Z,47.93
2018-11-01T18:05:33.550Z,44.17
2018-11-01T18:08:39.041Z,47.30
2018-11-01T18:11:43.769Z,46.93
2018-11-01T18:14:49.661Z,47.17
2018-11-01T18:17:55.285Z,45.27
2018-11-01T18:20:59.615Z,46.40
2018-11-01T18:24:04.562Z,45.57
2018-11-01T18:27:10.100Z,43.30
2018-11-01T18:30:15.864Z,43.70
2018-11-01T18:33:20.264Z,43.07
2018-11-01T18:36:25.167Z,46.90
2018-11-01T18:39:31.560Z,41.80
2018-11-01T18:42:36.826Z,44.07
2018-11-01T18:45:42.061Z,44.47
2018-11-01T18:48:46.749Z,41.00
2018-11-01T18:51:54.518Z,43.10
2018-11-01T18:55:01.157Z,46.77
2018-11-01T18:58:06.126Z,40.73
2018-11-01T19:01:11.109Z,41.20
2018-11-01T19:04:16.443Z,43.10
2018-11-01T19:07:22.584Z,45.97
2018-11-01T19:10:28.978Z,45.67
2018-11-01T19:13:35.252Z,43.43
2018-11-01T19:16:40.088Z,50.43
2018-11-01T19:19:44.964Z,45.90
2018-11-01T19:22:51.507Z,47.50
2018-11-01T19:25:56.438Z,51.60
2018-11-01T19:29:02.566Z,47.03
2018-11-01T19:32:08.344Z,47.30
2018-11-01T19:35:13.667Z,48.47
2018-11-01T19:38:18.601Z,42.63
2018-11-01T19:41:23.758Z,46.20
2018-11-01T19:44:28.725Z,48.80
2018-11-01T19:47:34.047Z,50.47
2018-11-01T19:50:38.800Z,51.10
2018-11-01T19:53:44.970Z,54.40
2018-11-01T19:56:49.872Z,48.23
2018-11-01T19:59:54.735Z,52.47
2018-11-01T20:02:59.926Z,55.70
2018-11-01T20:06:05.002Z,51.67
2018-11-01T20:09:10.496Z,58.40
2018-11-01T20:12:15.760Z,47.90
2018-11-01T20:15:20.900Z,47.37
2018-11-01T20:18:25.464Z,47.30
2018-11-01T20:21:30.473Z,51.80
2018-11-01T20:24:35.775Z,52.43
2018-11-01T20:27:41.163Z,53.03
2018-11-01T20:30:45.993Z,51.53
2018-11-01T20:33:50.651Z,54.73
2018-11-01T20:36:55.576Z,47.03
2018-11-01T20:40:01.419Z,49.40
2018-11-01T20:43:05.808Z,54.67
2018-11-01T20:46:11.796Z,50.87
2018-11-01T20:49:16.266Z,54.80
2018-11-01T20:52:21.000Z,54.67
2018-11-01T20:55:26.218Z,53.73
2018-11-01T20:58:30.921Z,52.83
2018-11-01T21:01:36.960Z,59.13
2018-11-01T21:04:41.918Z,53.37
2018-11-01T21:07:47.056Z,55.20
2018-11-01T21:10:52.281Z,52.13
2018-11-01T21:13:57.526Z,53.37
2018-11-01T21:17:03.162Z,58.63
2018-11-01T21:20:08.849Z,55.27
2018-11-01T21:23:14.188Z,56.47
2018-11-01T21:26:20.611Z,55.70
2018-11-01T21:29:27.113Z,58.33
2018-11-01T21:32:34.519Z,55.10
2018-11-01T21:35:39.594Z,55.67
2018-11-01T21:38:45.107Z,52.43
2018-11-01T21:41:50.483Z,55.80
2018-11-01T21:44:55.487Z,57.37
2018-11-01T21:48:00.647Z,50.47
2018-11-01T21:51:06.448Z,54.67
2018-11-01T21:54:11.983Z,50.30
2018-11-01T21:57:17.163Z,45.97
2018-11-01T22:00:22.516Z,47.73
2018-11-01T22:03:27.803Z,48.77
2018-11-01T22:06:33.242Z,51.70
2018-11-01T22:09:38.759Z,46.63
2018-11-01T22:12:44.345Z,47.03
2018-11-01T22:15:49.387Z,44.70
2018-11-01T22:18:54.940Z,42.27
2018-11-01T22:22:00.999Z,43.17
2018-11-01T22:25:09.167Z,44.00
2018-11-01T22:28:14.910Z,44.87
2018-11-01T22:31:19.110Z,40.70
2018-11-01T22:34:23.733Z,44.17
2018-11-01T22:37:28.561Z,39.87
2018-11-01T22:40:33.829Z,39.87
2018-11-01T22:43:38.992Z,42.20
2018-11-01T22:46:43.367Z,41.07
2018-11-01T22:49:52.380Z,40.47
2018-11-01T22:52:57.270Z,39.23
2018-11-01T22:56:02.412Z,42.80
2018-11-01T22:59:07.648Z,41.93
2018-11-01T23:02:12.962Z,42.00
2018-11-01T23:05:18.240Z,41.93
2018-11-01T23:08:23.452Z,34.03
2018-11-01T23:11:28.524Z,39.47
2018-11-01T23:14:33.476Z,35.97
2018-11-01T23:17:39.898Z,41.33
2018-11-01T23:20:45.345Z,39.13
2018-11-01T23:23:50.384Z,39.17
2018-11-01T23:26:56.197Z,37.33
2018-11-01T23:30:02.209Z,38.47
2018-11-01T23:33:08.795Z,36.17
2018-11-01T23:36:12.746Z,35.23
2018-11-01T23:39:23.178Z,35.70
2018-11-01T23:42:33.628Z,37.60
2018-11-01T23:45:44.701Z,35.77
2018-11-01T23:48:52.818Z,35.57
2018-11-01T23:52:02.469Z,34.50
2018-11-01T23:55:07.601Z,33.60
2018-11-01T23:58:12.759Z,33.67
